sensor_id;sensor_type;location;lat;lon;timestamp;pressure;altitude;pressure_sealevel;temperature;humidity
15193;BME280;7697;51.630;7.484;2022-10-16T00:00:11;100355.22;;;15.37;100.00
15193;BME280;7697;51.630;7.484;2022-10-16T00:05:12;100361.34;;;15.37;100.00
15193;BME280;7697;51.630;7.484;2022-10-16T00:10:16;100350.34;;;15.34;100.00
15193;BME280;7697;51.630;7.484;2022-10-16T00:15:17;100340.13;;;15.31;100.00
15193;BME280;7697;51.630;7.484;2022-10-16T00:20:19;100355.56;;;15.29;100.00
15193;BME280;7697;51.630;7.484;2022-10-16T00:25:23;100359.16;;;15.23;100.00
15193;BME280;7697;51.630;7.484;2022-10-16T00:30:24;100358.63;;;15.21;100.00
15193;BME280;7697;51.630;7.484;2022-10-16T00:35:27;100358.03;;;15.19;100.00
15193;BME280;7697;51.630;7.484;2022-10-16T00:40:31;100363.59;;;15.17;100.00
15193;BME280;7697;51.630;7.484;2022-10-16T00:45:32;100362.31;;;15.20;100.00
15193;BME280;7697;51.630;7.484;2022-10-16T00:50:34;100373.44;;;15.17;100.00
15193;BME280;7697;51.630;7.484;2022-10-16T00:55:37;100373.44;;;15.17;100.00
15193;BME280;7697;51.630;7.484;2022-10-16T01:00:39;100371.25;;;15.14;100.00
15193;BME280;7697;51.630;7.484;2022-10-16T01:05:44;100366.41;;;15.11;100.00
15193;BME280;7697;51.630;7.484;2022-10-16T01:10:57;100370.09;;;15.10;100.00
15193;BME280;7697;51.630;7.484;2022-10-16T01:16:05;100366.84;;;15.08;100.00
15193;BME280;7697;51.630;7.484;2022-10-16T01:21:10;100373.22;;;15.07;100.00
15193;BME280;7697;51.630;7.484;2022-10-16T01:26:23;100381.22;;;15.07;100.00
15193;BME280;7697;51.630;7.484;2022-10-16T01:31:36;100376.34;;;15.03;100.00
15193;BME280;7697;51.630;7.484;2022-10-16T01:36:44;100372.31;;;15.01;100.00
15193;BME280;7697;51.630;7.484;2022-10-16T01:41:51;100377.88;;;14.99;100.00
15193;BME280;7697;51.630;7.484;2022-10-16T01:46:57;100373.59;;;14.98;100.00
15193;BME280;7697;51.630;7.484;2022-10-16T01:52:02;100363.63;;;14.94;100.00
15193;BME280;7697;51.630;7.484;2022-10-16T01:57:07;100360.38;;;14.92;100.00
15193;BME280;7697;51.630;7.484;2022-10-16T02:02:12;100361.06;;;14.87;100.00
15193;BME280;7697;51.630;7.484;2022-10-16T02:07:15;100364.22;;;14.84;100.00
15193;BME280;7697;51.630;7.484;2022-10-16T02:12:22;100371.94;;;14.86;100.00
15193;BME280;7697;51.630;7.484;2022-10-16T02:17:27;100372.66;;;14.81;100.00
15193;BME280;7697;51.630;7.484;2022-10-16T02:22:32;100364.09;;;14.79;100.00
15193;BME280;7697;51.630;7.484;2022-10-16T02:27:41;100376.38;;;14.80;100.00
15193;BME280;7697;51.630;7.484;2022-10-16T02:32:48;100395.03;;;14.80;100.00
15193;BME280;7697;51.630;7.484;2022-10-16T02:37:51;100391.91;;;14.83;100.00
15193;BME280;7697;51.630;7.484;2022-10-16T02:42:54;100380.75;;;14.86;100.00
15193;BME280;7697;51.630;7.484;2022-10-16T02:47:57;100386.09;;;14.86;100.00
15193;BME280;7697;51.630;7.484;2022-10-16T02:52:59;100386.69;;;14.88;100.00
15193;BME280;7697;51.630;7.484;2022-10-16T02:58:01;100389.94;;;14.90;100.00
15193;BME280;7697;51.630;7.484;2022-10-16T03:03:04;100387.88;;;14.92;100.00
15193;BME280;7697;51.630;7.484;2022-10-16T03:08:06;100382.63;;;14.97;100.00
15193;BME280;7697;51.630;7.484;2022-10-16T03:13:07;100377.88;;;14.99;100.00
15193;BME280;7697;51.630;7.484;2022-10-16T03:18:10;100388.31;;;15.01;100.00
15193;BME280;7697;51.630;7.484;2022-10-16T03:23:12;100386.91;;;14.98;100.00
15193;BME280;7697;51.630;7.484;2022-10-16T03:28:13;100394.47;;;15.01;100.00
15193;BME280;7697;51.630;7.484;2022-10-16T03:33:19;100397.69;;;15.03;100.00
15193;BME280;7697;51.630;7.484;2022-10-16T03:38:21;100384.34;;;15.03;100.00
15193;BME280;7697;51.630;7.484;2022-10-16T03:43:23;100379.84;;;15.04;100.00
15193;BME280;7697;51.630;7.484;2022-10-16T03:48:26;100376.03;;;15.00;100.00
15193;BME280;7697;51.630;7.484;2022-10-16T03:53:27;100374.03;;;14.95;100.00
15193;BME280;7697;51.630;7.484;2022-10-16T03:58:29;100383.91;;;14.95;100.00
15193;BME280;7697;51.630;7.484;2022-10-16T04:03:32;100386.81;;;14.93;100.00
15193;BME280;7697;51.630;7.484;2022-10-16T04:08:34;100397.34;;;14.88;100.00
15193;BME280;7697;51.630;7.484;2022-10-16T04:13:37;100391.91;;;14.83;100.00
15193;BME280;7697;51.630;7.484;2022-10-16T04:18:40;100403.03;;;14.80;100.00
15193;BME280;7697;51.630;7.484;2022-10-16T04:23:41;100416.25;;;14.75;100.00
15193;BME280;7697;51.630;7.484;2022-10-16T04:28:43;100427.59;;;14.71;100.00
15193;BME280;7697;51.630;7.484;2022-10-16T04:33:46;100421.44;;;14.70;100.00
15193;BME280;7697;51.630;7.484;2022-10-16T04:38:48;100433.16;;;14.69;100.00
15193;BME280;7697;51.630;7.484;2022-10-16T04:43:50;100439.53;;;14.68;100.00
15193;BME280;7697;51.630;7.484;2022-10-16T04:48:53;100447.53;;;14.68;100.00
15193;BME280;7697;51.630;7.484;2022-10-16T04:53:54;100441.84;;;14.64;100.00
15193;BME280;7697;51.630;7.484;2022-10-16T04:58:56;100456.66;;;14.60;100.00
15193;BME280;7697;51.630;7.484;2022-10-16T05:03:59;100450.75;;;14.58;100.00
15193;BME280;7697;51.630;7.484;2022-10-16T05:09:02;100454.47;;;14.57;100.00
15193;BME280;7697;51.630;7.484;2022-10-16T05:14:03;100452.03;;;14.56;100.00
15193;BME280;7697;51.630;7.484;2022-10-16T05:19:06;100461.28;;;14.53;100.00
15193;BME280;7697;51.630;7.484;2022-10-16T05:24:08;100477.50;;;14.52;100.00
15193;BME280;7697;51.630;7.484;2022-10-16T05:29:10;100476.91;;;14.50;100.00
15193;BME280;7697;51.630;7.484;2022-10-16T05:34:13;100487.56;;;14.50;100.00
15193;BME280;7697;51.630;7.484;2022-10-16T05:39:15;100482.25;;;14.50;100.00
15193;BME280;7697;51.630;7.484;2022-10-16T05:44:17;100498.59;;;14.53;100.00
15193;BME280;7697;51.630;7.484;2022-10-16T05:49:20;100494.91;;;14.54;100.00
15193;BME280;7697;51.630;7.484;2022-10-16T05:54:22;100499.41;;;14.54;100.00
15193;BME280;7697;51.630;7.484;2022-10-16T05:59:24;100515.41;;;14.54;99.98
15193;BME280;7697;51.630;7.484;2022-10-16T06:04:27;100512.16;;;14.52;99.91
15193;BME280;7697;51.630;7.484;2022-10-16T06:09:28;100513.19;;;14.51;100.00
15193;BME280;7697;51.630;7.484;2022-10-16T06:14:30;100531.03;;;14.50;99.92
15193;BME280;7697;51.630;7.484;2022-10-16T06:19:33;100545.75;;;14.53;100.00
15193;BME280;7697;51.630;7.484;2022-10-16T06:24:35;100542.06;;;14.54;100.00
15193;BME280;7697;51.630;7.484;2022-10-16T06:29:36;100565.44;;;14.52;100.00
15193;BME280;7697;51.630;7.484;2022-10-16T06:34:39;100563.38;;;14.54;100.00
15193;BME280;7697;51.630;7.484;2022-10-16T06:39:41;100571.97;;;14.56;100.00
15193;BME280;7697;51.630;7.484;2022-10-16T06:44:43;100571.50;;;14.59;100.00
15193;BME280;7697;51.630;7.484;2022-10-16T06:49:46;100576.53;;;14.67;100.00
15193;BME280;7697;51.630;7.484;2022-10-16T06:54:47;100601.69;;;14.71;100.00
15193;BME280;7697;51.630;7.484;2022-10-16T06:59:49;100594.28;;;14.73;100.00
15193;BME280;7697;51.630;7.484;2022-10-16T07:04:52;100596.53;;;14.76;100.00
15193;BME280;7697;51.630;7.484;2022-10-16T07:09:54;100613.69;;;14.80;100.00
15193;BME280;7697;51.630;7.484;2022-10-16T07:14:55;100623.69;;;14.85;100.00
15193;BME280;7697;51.630;7.484;2022-10-16T07:19:59;100634.91;;;14.87;100.00
15193;BME280;7697;51.630;7.484;2022-10-16T07:25:00;100637.50;;;14.93;100.00
15193;BME280;7697;51.630;7.484;2022-10-16T07:30:03;100659.19;;;14.97;100.00
15193;BME280;7697;51.630;7.484;2022-10-16T07:35:07;100669.03;;;14.96;100.00
15193;BME280;7697;51.630;7.484;2022-10-16T07:40:09;100663.94;;;14.95;100.00
15193;BME280;7697;51.630;7.484;2022-10-16T07:45:11;100674.59;;;14.95;100.00
15193;BME280;7697;51.630;7.484;2022-10-16T07:50:14;100675.78;;;14.99;100.00
15193;BME280;7697;51.630;7.484;2022-10-16T07:55:15;100687.88;;;15.01;100.00
15193;BME280;7697;51.630;7.484;2022-10-16T08:00:17;100687.41;;;15.05;100.00
15193;BME280;7697;51.630;7.484;2022-10-16T08:05:20;100703.25;;;15.18;100.00
15193;BME280;7697;51.630;7.484;2022-10-16T08:10:23;100708.66;;;15.41;100.00
15193;BME280;7697;51.630;7.484;2022-10-16T08:15:25;100720.34;;;15.58;100.00
15193;BME280;7697;51.630;7.484;2022-10-16T08:20:30;100721.22;;;15.82;99.52
15193;BME280;7697;51.630;7.484;2022-10-16T08:25:34;100731.69;;;16.07;99.26
15193;BME280;7697;51.630;7.484;2022-10-16T08:30:36;100734.25;;;16.25;99.12
15193;BME280;7697;51.630;7.484;2022-10-16T08:35:39;100744.69;;;16.50;97.68
15193;BME280;7697;51.630;7.484;2022-10-16T08:40:42;100758.88;;;16.74;97.72
15193;BME280;7697;51.630;7.484;2022-10-16T08:45:54;100755.94;;;16.99;96.15
15193;BME280;7697;51.630;7.484;2022-10-16T08:51:03;100760.69;;;17.37;94.06
15193;BME280;7697;51.630;7.484;2022-10-16T08:56:06;100766.28;;;17.63;92.35
15193;BME280;7697;51.630;7.484;2022-10-16T09:01:12;100783.31;;;17.86;90.41
15193;BME280;7697;51.630;7.484;2022-10-16T09:06:38;100794.44;;;18.11;89.28
15193;BME280;7697;51.630;7.484;2022-10-16T09:11:50;100792.97;;;18.37;88.13
15193;BME280;7697;51.630;7.484;2022-10-16T09:16:58;100796.41;;;18.49;86.85
15193;BME280;7697;51.630;7.484;2022-10-16T09:22:12;100804.84;;;18.74;85.95
15193;BME280;7697;51.630;7.484;2022-10-16T09:27:14;100803.66;;;19.09;84.71
15193;BME280;7697;51.630;7.484;2022-10-16T09:32:19;100811.09;;;19.45;82.62
15193;BME280;7697;51.630;7.484;2022-10-16T09:37:24;100817.88;;;19.75;82.90
15193;BME280;7697;51.630;7.484;2022-10-16T09:42:30;100822.94;;;19.98;79.92
15193;BME280;7697;51.630;7.484;2022-10-16T09:47:39;100819.81;;;20.38;79.00
15193;BME280;7697;51.630;7.484;2022-10-16T09:52:45;100821.22;;;20.46;78.45
15193;BME280;7697;51.630;7.484;2022-10-16T09:57:50;100824.47;;;20.53;77.23
15193;BME280;7697;51.630;7.484;2022-10-16T10:02:53;100841.59;;;20.37;76.18
15193;BME280;7697;51.630;7.484;2022-10-16T10:07:58;100829.94;;;20.63;76.17
15193;BME280;7697;51.630;7.484;2022-10-16T10:13:01;100831.81;;;21.10;76.16
15193;BME280;7697;51.630;7.484;2022-10-16T10:18:16;100830.88;;;21.36;73.59
15193;BME280;7697;51.630;7.484;2022-10-16T10:23:21;100844.94;;;21.58;74.02
15193;BME280;7697;51.630;7.484;2022-10-16T10:28:44;100833.22;;;22.05;73.81
15193;BME280;7697;51.630;7.484;2022-10-16T10:33:54;100840.25;;;22.36;71.00
15193;BME280;7697;51.630;7.484;2022-10-16T10:39:03;100844.81;;;22.76;70.32
15193;BME280;7697;51.630;7.484;2022-10-16T10:44:14;100850.03;;;23.27;69.70
15193;BME280;7697;51.630;7.484;2022-10-16T10:49:32;100851.88;;;23.52;68.03
15193;BME280;7697;51.630;7.484;2022-10-16T10:54:47;100856.69;;;23.55;65.96
15193;BME280;7697;51.630;7.484;2022-10-16T11:00:09;100861.56;;;23.48;66.61
15193;BME280;7697;51.630;7.484;2022-10-16T11:05:32;100859.34;;;23.65;65.10
15193;BME280;7697;51.630;7.484;2022-10-16T11:10:44;100860.75;;;24.02;66.40
15193;BME280;7697;51.630;7.484;2022-10-16T11:15:48;100861.91;;;23.90;63.82
15193;BME280;7697;51.630;7.484;2022-10-16T11:21:10;100864.00;;;24.04;62.72
15193;BME280;7697;51.630;7.484;2022-10-16T11:26:18;100866.06;;;24.22;61.72
15193;BME280;7697;51.630;7.484;2022-10-16T11:31:26;100869.06;;;24.49;61.54
15193;BME280;7697;51.630;7.484;2022-10-16T11:36:36;100871.78;;;24.49;61.82
15193;BME280;7697;51.630;7.484;2022-10-16T11:41:45;100872.63;;;24.74;62.56
15193;BME280;7697;51.630;7.484;2022-10-16T11:46:52;100872.44;;;25.41;60.60
15193;BME280;7697;51.630;7.484;2022-10-16T11:52:07;100865.53;;;25.73;58.94
15193;BME280;7697;51.630;7.484;2022-10-16T11:57:17;100865.44;;;25.78;58.40
15193;BME280;7697;51.630;7.484;2022-10-16T12:02:30;100868.31;;;25.87;57.55
15193;BME280;7697;51.630;7.484;2022-10-16T12:07:39;100887.78;;;25.75;56.58
15193;BME280;7697;51.630;7.484;2022-10-16T12:12:44;100891.41;;;25.41;59.75
15193;BME280;7697;51.630;7.484;2022-10-16T12:17:46;100889.25;;;24.91;60.38
15193;BME280;7697;51.630;7.484;2022-10-16T12:22:52;100897.38;;;24.96;59.95
15193;BME280;7697;51.630;7.484;2022-10-16T12:28:04;100895.25;;;24.88;61.32
15193;BME280;7697;51.630;7.484;2022-10-16T12:33:19;100892.88;;;25.10;60.82
15193;BME280;7697;51.630;7.484;2022-10-16T12:38:27;100895.19;;;25.22;60.44
15193;BME280;7697;51.630;7.484;2022-10-16T12:43:38;100897.25;;;25.54;59.31
15193;BME280;7697;51.630;7.484;2022-10-16T12:48:43;100904.25;;;25.78;58.73
15193;BME280;7697;51.630;7.484;2022-10-16T12:53:58;100907.41;;;26.04;57.95
15193;BME280;7697;51.630;7.484;2022-10-16T12:59:08;100907.81;;;26.35;55.44
15193;BME280;7697;51.630;7.484;2022-10-16T13:04:31;100903.03;;;26.08;56.91
15193;BME280;7697;51.630;7.484;2022-10-16T13:09:49;100903.91;;;25.66;57.39
15193;BME280;7697;51.630;7.484;2022-10-16T13:15:18;100912.22;;;25.27;56.44
15193;BME280;7697;51.630;7.484;2022-10-16T13:20:27;100913.28;;;25.50;58.36
15193;BME280;7697;51.630;7.484;2022-10-16T13:25:44;100911.91;;;25.53;58.07
15193;BME280;7697;51.630;7.484;2022-10-16T13:30:52;100918.38;;;25.57;59.12
15193;BME280;7697;51.630;7.484;2022-10-16T13:35:55;100908.16;;;25.49;58.00
15193;BME280;7697;51.630;7.484;2022-10-16T13:41:00;100916.44;;;25.62;55.69
15193;BME280;7697;51.630;7.484;2022-10-16T13:46:04;100920.09;;;25.71;56.31
15193;BME280;7697;51.630;7.484;2022-10-16T13:51:12;100933.97;;;25.70;54.48
15193;BME280;7697;51.630;7.484;2022-10-16T13:56:17;100934.56;;;25.67;55.58
15193;BME280;7697;51.630;7.484;2022-10-16T14:01:24;100948.41;;;25.65;55.00
15193;BME280;7697;51.630;7.484;2022-10-16T14:06:26;100946.31;;;25.57;55.30
15193;BME280;7697;51.630;7.484;2022-10-16T14:11:29;100920.28;;;25.32;56.40
15193;BME280;7697;51.630;7.484;2022-10-16T14:16:32;100936.06;;;25.30;56.43
15193;BME280;7697;51.630;7.484;2022-10-16T14:21:34;100927.59;;;25.08;55.37
15193;BME280;7697;51.630;7.484;2022-10-16T14:26:42;100935.03;;;24.97;54.82
15193;BME280;7697;51.630;7.484;2022-10-16T14:31:54;100939.41;;;24.88;56.50
15193;BME280;7697;51.630;7.484;2022-10-16T14:36:58;100953.28;;;24.87;56.17
15193;BME280;7697;51.630;7.484;2022-10-16T14:42:02;100957.38;;;24.79;55.42
15193;BME280;7697;51.630;7.484;2022-10-16T14:47:09;100953.66;;;24.70;55.04
15193;BME280;7697;51.630;7.484;2022-10-16T14:52:14;100959.72;;;24.23;57.09
15193;BME280;7697;51.630;7.484;2022-10-16T14:57:18;100947.72;;;23.85;58.34
15193;BME280;7697;51.630;7.484;2022-10-16T15:02:25;100927.25;;;23.69;59.41
15193;BME280;7697;51.630;7.484;2022-10-16T15:07:28;100921.09;;;23.43;60.04
15193;BME280;7697;51.630;7.484;2022-10-16T15:12:31;100940.59;;;23.30;62.19
15193;BME280;7697;51.630;7.484;2022-10-16T15:17:33;100932.53;;;23.14;62.87
15193;BME280;7697;51.630;7.484;2022-10-16T15:22:34;100944.72;;;22.92;63.54
15193;BME280;7697;51.630;7.484;2022-10-16T15:27:37;100947.16;;;22.63;64.08
15193;BME280;7697;51.630;7.484;2022-10-16T15:32:40;100954.13;;;22.38;65.36
15193;BME280;7697;51.630;7.484;2022-10-16T15:37:42;100970.06;;;22.25;66.59
15193;BME280;7697;51.630;7.484;2022-10-16T15:42:45;100937.91;;;22.13;66.82
15193;BME280;7697;51.630;7.484;2022-10-16T15:47:47;100960.50;;;21.97;68.17
15193;BME280;7697;51.630;7.484;2022-10-16T15:52:49;100937.00;;;21.82;69.20
15193;BME280;7697;51.630;7.484;2022-10-16T15:57:52;100936.69;;;21.74;69.68
15193;BME280;7697;51.630;7.484;2022-10-16T16:02:56;100932.34;;;21.67;69.89
15193;BME280;7697;51.630;7.484;2022-10-16T16:07:57;100918.81;;;21.57;71.30
15193;BME280;7697;51.630;7.484;2022-10-16T16:13:00;100923.38;;;21.47;71.51
15193;BME280;7697;51.630;7.484;2022-10-16T16:18:02;100931.13;;;21.33;72.78
15193;BME280;7697;51.630;7.484;2022-10-16T16:23:05;100924.59;;;21.24;72.93
15193;BME280;7697;51.630;7.484;2022-10-16T16:28:08;100931.50;;;21.15;72.95
15193;BME280;7697;51.630;7.484;2022-10-16T16:33:14;100948.97;;;21.02;73.82
15193;BME280;7697;51.630;7.484;2022-10-16T16:38:16;100948.56;;;20.88;74.23
15193;BME280;7697;51.630;7.484;2022-10-16T16:43:19;100947.69;;;20.78;75.01
15193;BME280;7697;51.630;7.484;2022-10-16T16:48:21;100958.34;;;20.63;75.45
15193;BME280;7697;51.630;7.484;2022-10-16T16:53:23;100954.16;;;20.50;75.36
15193;BME280;7697;51.630;7.484;2022-10-16T16:58:26;100959.53;;;20.45;75.00
15193;BME280;7697;51.630;7.484;2022-10-16T17:03:28;100967.00;;;20.38;75.15
15193;BME280;7697;51.630;7.484;2022-10-16T17:08:30;100976.56;;;20.29;76.21
15193;BME280;7697;51.630;7.484;2022-10-16T17:13:34;100969.69;;;20.16;75.97
15193;BME280;7697;51.630;7.484;2022-10-16T17:18:37;100978.69;;;20.05;75.43
15193;BME280;7697;51.630;7.484;2022-10-16T17:23:39;100980.78;;;19.98;75.72
15193;BME280;7697;51.630;7.484;2022-10-16T17:28:42;100982.03;;;19.90;76.09
15193;BME280;7697;51.630;7.484;2022-10-16T17:33:45;100994.38;;;19.86;77.24
15193;BME280;7697;51.630;7.484;2022-10-16T17:38:47;100996.84;;;19.71;77.28
15193;BME280;7697;51.630;7.484;2022-10-16T17:43:51;101003.72;;;19.62;77.89
15193;BME280;7697;51.630;7.484;2022-10-16T17:48:53;100999.34;;;19.56;77.34
15193;BME280;7697;51.630;7.484;2022-10-16T17:53:57;100992.00;;;19.51;77.35
15193;BME280;7697;51.630;7.484;2022-10-16T17:59:00;100987.28;;;19.41;76.98
15193;BME280;7697;51.630;7.484;2022-10-16T18:04:04;100997.47;;;19.39;76.99
15193;BME280;7697;51.630;7.484;2022-10-16T18:09:07;101010.34;;;19.37;78.06
15193;BME280;7697;51.630;7.484;2022-10-16T18:14:12;101023.69;;;19.32;77.96
15193;BME280;7697;51.630;7.484;2022-10-16T18:19:14;101024.41;;;19.28;77.76
15193;BME280;7697;51.630;7.484;2022-10-16T18:24:16;101005.78;;;19.21;77.36
15193;BME280;7697;51.630;7.484;2022-10-16T18:29:19;101016.44;;;19.16;77.25
15193;BME280;7697;51.630;7.484;2022-10-16T18:34:21;101012.06;;;19.10;77.55
15193;BME280;7697;51.630;7.484;2022-10-16T18:39:23;101008.22;;;19.06;77.26
15193;BME280;7697;51.630;7.484;2022-10-16T18:44:26;101001.16;;;19.00;77.38
15193;BME280;7697;51.630;7.484;2022-10-16T18:49:30;100999.94;;;18.91;77.46
15193;BME280;7697;51.630;7.484;2022-10-16T18:54:32;101000.09;;;18.84;77.55
15193;BME280;7697;51.630;7.484;2022-10-16T18:59:36;100989.53;;;18.78;77.45
15193;BME280;7697;51.630;7.484;2022-10-16T19:04:39;100992.13;;;18.72;77.86
15193;BME280;7697;51.630;7.484;2022-10-16T19:09:41;100998.69;;;18.65;78.18
15193;BME280;7697;51.630;7.484;2022-10-16T19:14:46;101004.53;;;18.62;78.44
15193;BME280;7697;51.630;7.484;2022-10-16T19:19:48;101009.59;;;18.58;78.45
15193;BME280;7697;51.630;7.484;2022-10-16T19:24:50;101019.81;;;18.61;78.38
15193;BME280;7697;51.630;7.484;2022-10-16T19:29:53;101048.78;;;18.59;78.81
15193;BME280;7697;51.630;7.484;2022-10-16T19:34:54;101066.50;;;18.60;79.15
15193;BME280;7697;51.630;7.484;2022-10-16T19:39:56;101058.31;;;18.55;79.59
15193;BME280;7697;51.630;7.484;2022-10-16T19:44:59;101090.06;;;18.58;80.63
15193;BME280;7697;51.630;7.484;2022-10-16T19:50:01;101079.13;;;18.48;81.78
15193;BME280;7697;51.630;7.484;2022-10-16T19:55:03;101070.06;;;18.37;82.85
15193;BME280;7697;51.630;7.484;2022-10-16T20:00:08;101065.66;;;18.31;83.94
15193;BME280;7697;51.630;7.484;2022-10-16T20:05:10;101050.75;;;18.24;84.36
15193;BME280;7697;51.630;7.484;2022-10-16T20:10:11;101056.03;;;18.07;85.14
15193;BME280;7697;51.630;7.484;2022-10-16T20:15:14;101068.88;;;18.05;85.83
15193;BME280;7697;51.630;7.484;2022-10-16T20:20:16;101074.09;;;18.00;86.46
15193;BME280;7697;51.630;7.484;2022-10-16T20:25:18;101069.91;;;17.92;86.86
15193;BME280;7697;51.630;7.484;2022-10-16T20:30:21;101057.69;;;17.85;87.44
15193;BME280;7697;51.630;7.484;2022-10-16T20:35:23;101069.47;;;17.72;88.27
15193;BME280;7697;51.630;7.484;2022-10-16T20:40:25;101066.91;;;17.66;88.99
15193;BME280;7697;51.630;7.484;2022-10-16T20:45:28;101065.06;;;17.66;88.90
15193;BME280;7697;51.630;7.484;2022-10-16T20:50:30;101062.03;;;17.63;89.22
15193;BME280;7697;51.630;7.484;2022-10-16T20:55:33;101054.88;;;17.56;90.06
15193;BME280;7697;51.630;7.484;2022-10-16T21:00:37;101068.78;;;17.53;89.85
15193;BME280;7697;51.630;7.484;2022-10-16T21:05:39;101060.00;;;17.46;90.39
15193;BME280;7697;51.630;7.484;2022-10-16T21:10:41;101062.22;;;17.38;91.24
15193;BME280;7697;51.630;7.484;2022-10-16T21:15:44;101061.75;;;17.29;91.55
15193;BME280;7697;51.630;7.484;2022-10-16T21:20:46;101068.84;;;17.23;91.78
15193;BME280;7697;51.630;7.484;2022-10-16T21:25:48;101062.91;;;17.21;91.59
15193;BME280;7697;51.630;7.484;2022-10-16T21:30:51;101053.59;;;17.12;92.45
15193;BME280;7697;51.630;7.484;2022-10-16T21:35:53;101043.66;;;17.01;93.38
15193;BME280;7697;51.630;7.484;2022-10-16T21:40:54;101053.22;;;16.97;93.38
15193;BME280;7697;51.630;7.484;2022-10-16T21:45:57;101050.31;;;16.99;93.17
15193;BME280;7697;51.630;7.484;2022-10-16T21:50:59;101046.34;;;16.90;93.64
15193;BME280;7697;51.630;7.484;2022-10-16T21:56:01;101044.69;;;16.88;93.58
15193;BME280;7697;51.630;7.484;2022-10-16T22:01:06;101046.78;;;16.86;93.69
15193;BME280;7697;51.630;7.484;2022-10-16T22:06:10;101040.03;;;16.84;93.74
15193;BME280;7697;51.630;7.484;2022-10-16T22:11:14;101034.31;;;16.80;93.76
15193;BME280;7697;51.630;7.484;2022-10-16T22:16:19;101029.88;;;16.74;94.12
15193;BME280;7697;51.630;7.484;2022-10-16T22:21:22;101020.38;;;16.60;94.84
15193;BME280;7697;51.630;7.484;2022-10-16T22:26:24;101025.25;;;16.51;95.09
15193;BME280;7697;51.630;7.484;2022-10-16T22:31:27;101026.72;;;16.47;95.49
15193;BME280;7697;51.630;7.484;2022-10-16T22:36:29;101031.50;;;16.45;95.66
15193;BME280;7697;51.630;7.484;2022-10-16T22:41:31;101033.59;;;16.43;95.47
15193;BME280;7697;51.630;7.484;2022-10-16T22:46:34;101034.19;;;16.45;95.25
15193;BME280;7697;51.630;7.484;2022-10-16T22:51:36;101040.41;;;16.39;95.38
15193;BME280;7697;51.630;7.484;2022-10-16T22:56:38;101035.97;;;16.33;95.38
15193;BME280;7697;51.630;7.484;2022-10-16T23:01:41;101030.34;;;16.23;95.85
15193;BME280;7697;51.630;7.484;2022-10-16T23:06:42;101030.94;;;16.25;96.23
15193;BME280;7697;51.630;7.484;2022-10-16T23:11:44;101022.31;;;16.23;96.48
15193;BME280;7697;51.630;7.484;2022-10-16T23:16:47;101021.16;;;16.19;97.03
15193;BME280;7697;51.630;7.484;2022-10-16T23:21:49;101016.69;;;16.13;96.91
15193;BME280;7697;51.630;7.484;2022-10-16T23:26:51;101019.03;;;16.09;97.49
15193;BME280;7697;51.630;7.484;2022-10-16T23:31:54;101021.22;;;16.12;96.99
15193;BME280;7697;51.630;7.484;2022-10-16T23:36:56;101029.41;;;16.18;96.71
15193;BME280;7697;51.630;7.484;2022-10-16T23:41:58;101037.75;;;16.21;96.72
15193;BME280;7697;51.630;7.484;2022-10-16T23:47:01;101029.75;;;16.21;96.19
15193;BME280;7697;51.630;7.484;2022-10-16T23:52:03;101035.09;;;16.21;96.25
15193;BME280;7697;51.630;7.484;2022-10-16T23:57:05;101036.38;;;16.19;96.00
